PAWS

Details ICAO PAWS
Name WASILLA
Region USA (Alaska)
Timezone America/Anchorage (UTC-9.0)
Plans Departing 3
Arriving 6
Stats Elevation 354 ft / 108 m (AMSL)
Location 61.571660° -149.540296°
Runways 1
Magnetic Variation 16.432° E
Sunrise 2017-12-18 19:16:23 UTC / 2017-12-18 10:16:23 Local
Sunset 2017-12-19 00:36:16 UTC / 2017-12-18 15:36:16 Local
Advertisement - Login to hide

Runways

ID Width Length Bearing (true) Bearing (mag) Surface Threshold Offset Overrun Length
03 75 ft / 23 m 3,689 ft / 1,125 m 56.19° 39.76° Asphalt 0 ft / 0 m 200 ft / 61 m
21 75 ft / 23 m 3,689 ft / 1,125 m 236.20° 219.77° Asphalt 0 ft / 0 m 300 ft / 91 m

Map

Weather


0- 5 10 15 20 25 30 35+ Temperature / ° C

Clouds and Precipitation
Forecast for 2017-12-19 00:00 UTC. Updated 2 hours ago

Ground ~20,000 ft ~40,000 ft Winds

METAR

PAWS 182056Z AUTO 00000KT 10SM CLR M08/M09 A3016 RMK AO2 SLP228 T10781089 51016 FZRANO

TAF

Not found

Frequencies

Recorded 135.25 MHz AWOS 3
Approach 119.10 MHz ANCHORAGE APP/DEP
Unicom 122.80 MHz CTAF
Warning: Do not use this data for real-world aviation or navigation. No guarantee of current accuracy is given.